Time;durP1;ratioP1;P1;durP2;ratioP2;P2;SDS_P1;SDS_P2;PMS_P1;PMS_P2;Temp;Humidity;BMP_temperature;BMP_pressure;BME280_temperature;BME280_humidity;BME280_pressure;Samples;Min_cycle;Max_cycle;Signal;HPM_P1;HPM_P2
2022/09/19 00:01:39;;;;;;;;;;;;;;;9.50;85.32;101756.53;4981983;28;20169;-63
2022/09/19 00:04:15;;;;;;;;;;;;;;;9.49;85.49;101755.66;4976793;28;20042;-63
2022/09/19 00:06:41;;;;;;;;;;;;;;;9.49;85.46;101753.03;4976987;28;20068;-63
2022/09/19 00:09:09;;;;;;;;;;;;;;;9.47;85.46;101749.50;4977663;28;19930;-63
2022/09/19 00:11:34;;;;;;;;;;;;;;;9.45;85.23;101755.47;4977204;28;19914;-64
2022/09/19 00:14:00;;;;;;;;;;;;;;;9.43;85.32;101763.19;4976860;28;20050;-63
2022/09/19 00:16:25;;;;;;;;;;;;;;;9.42;85.51;101758.81;4977326;28;19981;-63
2022/09/19 00:18:51;;;;;;;;;;;;;;;9.40;85.50;101758.75;4976009;28;19910;-63
2022/09/19 00:21:19;;;;;;;;;;;;;;;9.40;85.47;101760.47;4976580;28;20011;-64
2022/09/19 00:26:28;;;;;;;;;;;;;;;9.34;85.35;101757.56;4977709;28;20029;-63
2022/09/19 00:28:53;;;;;;;;;;;;;;;9.33;85.38;101751.50;4961151;28;19914;-63
2022/09/19 00:31:19;;;;;;;;;;;;;;;9.32;85.39;101751.44;4976947;28;19957;-64
2022/09/19 00:33:46;;;;;;;;;;;;;;;9.28;85.35;101757.31;4975771;28;21428;-64
2022/09/19 00:36:12;;;;;;;;;;;;;;;9.26;85.27;101758.97;4976465;28;20540;-64
2022/09/19 00:38:37;;;;;;;;;;;;;;;9.23;85.17;101760.59;4977264;28;19922;-59
2022/09/19 00:41:02;;;;;;;;;;;;;;;9.22;85.26;101761.44;4983556;28;20156;-59
2022/09/19 00:43:46;;;;;;;;;;;;;;;9.22;85.37;101764.06;4993320;28;19910;-59
2022/09/19 00:46:11;;;;;;;;;;;;;;;9.21;85.26;101759.66;4995105;28;19910;-59
2022/09/19 00:48:41;;;;;;;;;;;;;;;9.22;85.30;101763.13;4983724;28;20160;-59
2022/09/19 00:51:07;;;;;;;;;;;;;;;9.22;85.44;101760.53;4984049;28;20148;-59
2022/09/19 00:53:33;;;;;;;;;;;;;;;9.19;85.38;101756.09;4969911;28;19913;-59
2022/09/19 00:55:58;;;;;;;;;;;;;;;9.18;85.42;101759.53;4977341;28;19910;-59
2022/09/19 00:58:38;;;;;;;;;;;;;;;9.17;85.43;101755.16;4992690;28;19925;-59
2022/09/19 01:01:03;;;;;;;;;;;;;;;9.17;85.39;101762.06;4999167;28;20148;-59
2022/09/19 01:03:29;;;;;;;;;;;;;;;9.16;85.38;101760.28;4992180;28;19910;-59
2022/09/19 01:05:56;;;;;;;;;;;;;;;9.15;85.47;101756.81;4985231;28;19925;-59
2022/09/19 01:08:28;;;;;;;;;;;;;;;9.16;85.55;101760.28;4983618;28;20163;-59
2022/09/19 01:11:12;;;;;;;;;;;;;;;9.14;85.57;101757.63;4991570;28;20715;-59
2022/09/19 01:13:57;;;;;;;;;;;;;;;9.14;85.67;101760.22;5003212;28;19916;-59
2022/09/19 01:16:34;;;;;;;;;;;;;;;9.15;85.56;101771.50;4989396;28;20069;-59
2022/09/19 01:19:16;;;;;;;;;;;;;;;9.15;85.58;101777.59;4983631;28;20094;-59
2022/09/19 01:21:52;;;;;;;;;;;;;;;9.17;85.45;101788.06;4983288;28;19926;-58
2022/09/19 01:24:40;;;;;;;;;;;;;;;9.14;85.66;101788.81;4987616;28;20036;-58
2022/09/19 01:27:17;;;;;;;;;;;;;;;9.15;85.63;101788.00;4977345;28;19930;-59
2022/09/19 01:29:45;;;;;;;;;;;;;;;9.13;85.52;101787.03;4993273;28;19973;-59
2022/09/19 01:32:13;;;;;;;;;;;;;;;9.12;85.68;101786.97;4979187;28;19932;-59
2022/09/19 01:34:44;;;;;;;;;;;;;;;9.11;85.50;101786.09;4976400;28;20250;-59
2022/09/19 01:37:12;;;;;;;;;;;;;;;9.09;85.53;101789.44;4977607;28;20033;-64
2022/09/19 01:39:39;;;;;;;;;;;;;;;9.08;85.40;101787.63;4975981;28;20079;-64
2022/09/19 01:42:04;;;;;;;;;;;;;;;9.07;85.44;101786.75;4975931;28;19922;-64
2022/09/19 01:44:31;;;;;;;;;;;;;;;9.07;85.44;101793.66;4977783;28;20211;-63
2022/09/19 01:47:05;;;;;;;;;;;;;;;9.06;85.49;101782.38;4975818;28;19909;-64
2022/09/19 01:49:40;;;;;;;;;;;;;;;9.05;85.65;101784.09;4977976;28;20100;-63
2022/09/19 01:52:05;;;;;;;;;;;;;;;9.05;85.70;101791.91;4985761;28;19910;-63
2022/09/19 01:54:37;;;;;;;;;;;;;;;9.05;85.76;101790.97;4995284;28;19905;-64
2022/09/19 01:57:21;;;;;;;;;;;;;;;9.05;85.76;101789.28;5000351;28;19981;-64
2022/09/19 01:59:55;;;;;;;;;;;;;;;9.06;85.79;101790.16;4997654;28;19914;-64
2022/09/19 02:02:28;;;;;;;;;;;;;;;9.07;85.90;101791.97;4989741;28;20259;-64
2022/09/19 02:05:01;;;;;;;;;;;;;;;9.08;86.05;101792.84;4992889;28;19977;-64
2022/09/19 02:07:30;;;;;;;;;;;;;;;9.08;86.06;101787.63;4991128;28;19979;-64
2022/09/19 02:10:05;;;;;;;;;;;;;;;9.08;86.15;101785.94;4992792;28;19981;-64
2022/09/19 02:12:32;;;;;;;;;;;;;;;9.10;86.30;101789.50;4986307;28;20061;-64
2022/09/19 02:15:00;;;;;;;;;;;;;;;9.08;86.19;101785.94;4984448;28;19910;-64
2022/09/19 02:17:44;;;;;;;;;;;;;;;9.08;86.34;101785.94;4983848;28;20160;-64
2022/09/19 02:20:11;;;;;;;;;;;;;;;9.07;86.17;101789.38;4995545;28;19917;-64
2022/09/19 02:22:45;;;;;;;;;;;;;;;9.06;86.47;101787.56;4984691;28;19932;-64
2022/09/19 02:25:12;;;;;;;;;;;;;;;9.05;86.19;101790.97;4985277;28;19953;-63
2022/09/19 02:27:49;;;;;;;;;;;;;;;9.06;86.19;101800.56;4986935;28;20237;-63
2022/09/19 02:30:16;;;;;;;;;;;;;;;9.06;86.22;101800.56;4989598;28;19949;-64
2022/09/19 02:32:48;;;;;;;;;;;;;;;9.05;86.33;101801.38;4996899;28;19921;-64
2022/09/19 02:35:19;;;;;;;;;;;;;;;9.04;86.41;101812.63;4998965;28;20132;-64
2022/09/19 02:37:56;;;;;;;;;;;;;;;9.03;86.30;101808.22;4996985;28;20158;-63
2022/09/19 02:40:21;;;;;;;;;;;;;;;9.02;86.28;101815.16;4991321;28;20001;-63
2022/09/19 02:42:57;;;;;;;;;;;;;;;9.01;86.16;101812.50;4998860;28;20161;-64
2022/09/19 02:45:31;;;;;;;;;;;;;;;9.00;86.30;101811.56;4985419;28;20208;-64
2022/09/19 02:47:57;;;;;;;;;;;;;;;8.99;86.13;101812.41;4973293;28;19914;-64
2022/09/19 02:50:29;;;;;;;;;;;;;;;9.00;86.39;101815.91;4999177;28;19916;-64
2022/09/19 02:52:56;;;;;;;;;;;;;;;8.97;86.12;101808.84;4986084;28;19984;-64
2022/09/19 02:55:23;;;;;;;;;;;;;;;8.97;86.02;101814.03;4984180;28;20156;-64
2022/09/19 02:57:51;;;;;;;;;;;;;;;8.97;86.25;101815.75;4991409;28;19957;-63
2022/09/19 03:00:17;;;;;;;;;;;;;;;8.97;86.25;101813.16;4990643;28;19910;-64
2022/09/19 03:06:00;;;;;;;;;;;;;;;8.95;86.18;101814.78;4968415;28;19953;-64
2022/09/19 03:08:27;;;;;;;;;;;;;;;8.95;86.25;101820.91;4991363;28;20117;-64
2022/09/19 03:10:56;;;;;;;;;;;;;;;8.94;86.27;101820.81;4987692;28;20428;-63
2022/09/19 03:13:24;;;;;;;;;;;;;;;8.93;86.53;101816.44;4991374;28;19980;-64
2022/09/19 03:16:06;;;;;;;;;;;;;;;8.91;86.44;101818.06;4995763;28;20385;-63
2022/09/19 03:18:31;;;;;;;;;;;;;;;8.92;86.39;101822.44;4993009;28;19953;-63
2022/09/19 03:21:02;;;;;;;;;;;;;;;8.92;86.41;101819.84;4989188;28;19917;-64
2022/09/19 03:23:39;;;;;;;;;;;;;;;8.91;86.43;101815.47;4982321;28;19910;-64
2022/09/19 03:26:08;;;;;;;;;;;;;;;8.92;86.42;101825.97;4986719;28;19910;-64
2022/09/19 03:28:33;;;;;;;;;;;;;;;8.93;86.44;101824.22;4997165;28;19913;-64
2022/09/19 03:30:59;;;;;;;;;;;;;;;8.92;86.51;101822.44;4988631;28;19964;-64
2022/09/19 03:33:24;;;;;;;;;;;;;;;8.93;86.53;101816.44;4983558;28;19926;-64
2022/09/19 03:35:50;;;;;;;;;;;;;;;8.93;86.57;101819.91;4986298;28;20295;-64
2022/09/19 03:38:15;;;;;;;;;;;;;;;8.94;86.64;101823.44;4989752;28;19914;-59
2022/09/19 03:40:41;;;;;;;;;;;;;;;8.95;86.56;101825.19;4984968;28;19917;-59
2022/09/19 03:43:06;;;;;;;;;;;;;;;8.95;86.63;101822.59;4996375;28;19918;-59
2022/09/19 03:45:32;;;;;;;;;;;;;;;8.95;86.70;101817.38;4982018;28;19910;-59
2022/09/19 03:47:57;;;;;;;;;;;;;;;8.95;86.80;101826.09;4986601;28;19926;-59
2022/09/19 03:50:23;;;;;;;;;;;;;;;8.96;86.86;101817.44;4979070;28;19910;-59
2022/09/19 03:52:49;;;;;;;;;;;;;;;8.97;86.78;101820.97;4998838;28;20191;-59
2022/09/19 03:55:14;;;;;;;;;;;;;;;8.98;87.02;101825.31;4993540;28;19914;-59
2022/09/19 03:57:39;;;;;;;;;;;;;;;9.00;86.89;101834.97;4990504;28;19941;-59
2022/09/19 04:00:06;;;;;;;;;;;;;;;9.01;86.92;101822.88;4983149;28;20060;-59
2022/09/19 04:02:31;;;;;;;;;;;;;;;9.01;86.92;101825.50;4989577;28;19922;-59
2022/09/19 04:04:56;;;;;;;;;;;;;;;9.01;86.92;101828.97;4987386;28;19945;-59
2022/09/19 04:07:22;;;;;;;;;;;;;;;9.02;86.91;101824.66;4983178;28;20195;-59
2022/09/19 04:09:47;;;;;;;;;;;;;;;9.03;86.88;101826.44;4981797;28;19910;-59
2022/09/19 04:12:13;;;;;;;;;;;;;;;9.03;87.00;101837.72;4988447;28;19918;-59
2022/09/19 04:14:38;;;;;;;;;;;;;;;9.03;86.98;101837.72;4989671;28;19952;-59
2022/09/19 04:17:06;;;;;;;;;;;;;;;9.03;86.85;101834.22;4989421;28;19909;-59
2022/09/19 04:19:32;;;;;;;;;;;;;;;9.02;86.94;101838.56;4989379;28;19980;-59
2022/09/19 04:21:59;;;;;;;;;;;;;;;9.02;86.77;101848.03;4987637;28;19925;-59
2022/09/19 04:24:26;;;;;;;;;;;;;;;9.02;86.76;101848.03;4985741;28;19910;-59
2022/09/19 04:26:52;;;;;;;;;;;;;;;9.02;86.66;101851.56;4985036;28;19936;-59
2022/09/19 04:29:19;;;;;;;;;;;;;;;9.01;86.66;101847.16;4989755;28;19911;-59
2022/09/19 04:31:44;;;;;;;;;;;;;;;9.01;86.62;101851.47;4979505;28;19910;-59
2022/09/19 04:34:16;;;;;;;;;;;;;;;8.99;86.75;101854.00;4996388;28;20129;-59
2022/09/19 04:36:41;;;;;;;;;;;;;;;9.00;86.83;101847.09;4983385;28;19917;-59
2022/09/19 04:39:07;;;;;;;;;;;;;;;8.99;86.72;101854.00;4990837;28;19906;-59
2022/09/19 04:41:34;;;;;;;;;;;;;;;8.98;86.76;101857.41;4983075;28;19926;-59
2022/09/19 04:43:59;;;;;;;;;;;;;;;8.99;86.78;101853.09;4978201;28;19964;-59
2022/09/19 04:46:25;;;;;;;;;;;;;;;8.99;86.63;101858.31;4976831;28;20088;-59
2022/09/19 04:48:52;;;;;;;;;;;;;;;8.99;86.84;101858.31;4976688;28;20156;-59
2022/09/19 04:51:17;;;;;;;;;;;;;;;9.00;86.84;101860.09;4976399;28;19957;-59
2022/09/19 04:53:43;;;;;;;;;;;;;;;9.01;86.94;101864.47;4976738;28;19910;-60
2022/09/19 04:56:08;;;;;;;;;;;;;;;9.01;86.94;101861.88;4977124;28;19930;-59
2022/09/19 04:58:33;;;;;;;;;;;;;;;9.02;86.95;101867.16;4977395;28;19921;-59
2022/09/19 05:00:58;;;;;;;;;;;;;;;9.03;86.94;101868.03;4977701;28;19917;-59
2022/09/19 05:03:25;;;;;;;;;;;;;;;9.04;86.87;101865.50;4985716;28;19910;-59
2022/09/19 05:05:51;;;;;;;;;;;;;;;9.05;86.92;101867.28;4987476;28;19972;-59
2022/09/19 05:08:30;;;;;;;;;;;;;;;9.07;86.96;101867.34;4987292;28;20133;-59
2022/09/19 05:10:56;;;;;;;;;;;;;;;9.08;87.07;101869.16;4968338;28;19917;-59
2022/09/19 05:13:29;;;;;;;;;;;;;;;9.08;87.01;101876.94;4982193;28;19916;-59
2022/09/19 05:15:55;;;;;;;;;;;;;;;9.09;87.12;101877.81;4986364;28;19933;-59
2022/09/19 05:18:21;;;;;;;;;;;;;;;9.10;87.08;101888.28;4984578;28;20057;-59
2022/09/19 05:20:47;;;;;;;;;;;;;;;9.10;87.19;101880.50;4989468;28;19941;-59
2022/09/19 05:23:13;;;;;;;;;;;;;;;9.11;87.16;101879.69;4989572;28;20163;-59
2022/09/19 05:25:39;;;;;;;;;;;;;;;9.12;87.16;101884.03;4971795;28;19914;-59
2022/09/19 05:28:06;;;;;;;;;;;;;;;9.12;87.06;101886.63;5003637;28;19912;-59
2022/09/19 05:30:35;;;;;;;;;;;;;;;9.12;87.33;101889.25;4990696;28;21384;-59
2022/09/19 05:33:02;;;;;;;;;;;;;;;9.12;87.28;101891.84;4986378;28;19918;-59
2022/09/19 05:35:27;;;;;;;;;;;;;;;9.13;87.07;101892.75;4990680;28;20159;-59
2022/09/19 05:37:52;;;;;;;;;;;;;;;9.13;87.19;101884.94;5002442;28;19965;-59
2022/09/19 05:40:18;;;;;;;;;;;;;;;9.14;87.53;101894.50;4999791;28;19925;-60
2022/09/19 05:42:46;;;;;;;;;;;;;;;9.15;87.34;101897.22;4998955;28;19949;-58
2022/09/19 05:45:12;;;;;;;;;;;;;;;9.16;87.31;101898.09;4989994;28;20100;-59
2022/09/19 05:47:39;;;;;;;;;;;;;;;9.15;87.24;101898.91;4982708;28;20214;-59
2022/09/19 05:50:09;;;;;;;;;;;;;;;9.15;87.26;101896.31;4988130;28;19949;-59
2022/09/19 05:55:21;;;;;;;;;;;;;;;9.14;87.41;101903.22;4988927;28;19917;-60
2022/09/19 05:57:51;;;;;;;;;;;;;;;9.14;87.41;101897.09;4992269;28;19921;-60
2022/09/19 06:00:16;;;;;;;;;;;;;;;9.14;87.41;101900.63;4983162;28;19984;-60
2022/09/19 06:02:41;;;;;;;;;;;;;;;9.15;87.35;101907.63;4978221;28;19983;-60
2022/09/19 06:05:06;;;;;;;;;;;;;;;9.15;87.40;101910.22;4981910;28;19921;-60
2022/09/19 06:07:32;;;;;;;;;;;;;;;9.15;87.62;101912.81;4987017;28;19981;-65
2022/09/19 06:09:57;;;;;;;;;;;;;;;9.15;87.53;101910.22;4989673;28;19910;-65
2022/09/19 06:12:22;;;;;;;;;;;;;;;9.17;87.71;101911.16;4988364;28;19910;-65
2022/09/19 06:14:47;;;;;;;;;;;;;;;9.17;87.67;101913.75;4988096;28;19945;-65
2022/09/19 06:17:15;;;;;;;;;;;;;;;9.17;88.16;101911.16;4982692;28;19917;-65
2022/09/19 06:19:41;;;;;;;;;;;;;;;9.22;88.08;101913.97;4984874;28;19917;-65
2022/09/19 06:22:06;;;;;;;;;;;;;;;9.23;88.04;101915.75;4980127;28;19914;-65
2022/09/19 06:24:31;;;;;;;;;;;;;;;9.25;88.25;101921.91;4988968;28;19909;-65
2022/09/19 06:26:57;;;;;;;;;;;;;;;9.29;88.28;101925.56;4988022;28;20061;-65
2022/09/19 06:29:22;;;;;;;;;;;;;;;9.30;88.53;101923.03;4999792;28;19909;-65
2022/09/19 06:31:47;;;;;;;;;;;;;;;9.32;88.60;101931.78;5002424;28;19910;-65
2022/09/19 06:34:14;;;;;;;;;;;;;;;9.34;88.80;101932.75;4989713;28;19957;-65
2022/09/19 06:36:39;;;;;;;;;;;;;;;9.36;88.97;101928.50;4991352;28;19917;-60
2022/09/19 06:39:05;;;;;;;;;;;;;;;9.37;88.84;101935.50;4994927;28;19925;-60
2022/09/19 06:41:31;;;;;;;;;;;;;;;9.40;88.90;101935.63;4999173;28;20195;-60
2022/09/19 06:43:57;;;;;;;;;;;;;;;9.43;88.86;101939.19;4988187;28;19910;-60
2022/09/19 06:46:22;;;;;;;;;;;;;;;9.45;89.08;101941.03;4989802;28;19933;-60
2022/09/19 06:48:48;;;;;;;;;;;;;;;9.46;89.10;101940.22;4981099;28;19929;-60
2022/09/19 06:51:13;;;;;;;;;;;;;;;9.48;89.05;101943.78;4986881;28;20192;-60
2022/09/19 06:53:39;;;;;;;;;;;;;;;9.50;89.06;101947.34;4990464;28;19922;-60
2022/09/19 06:56:04;;;;;;;;;;;;;;;9.53;89.38;101946.56;4987545;28;20023;-60
2022/09/19 06:58:29;;;;;;;;;;;;;;;9.56;89.53;101947.63;4986125;28;19922;-59
2022/09/19 07:00:54;;;;;;;;;;;;;;;9.59;89.36;101954.69;4994542;28;20157;-60
2022/09/19 07:03:20;;;;;;;;;;;;;;;9.62;89.12;101952.22;4990951;28;20082;-60
2022/09/19 07:05:47;;;;;;;;;;;;;;;9.65;89.29;101959.28;4989468;28;19930;-60
2022/09/19 07:08:13;;;;;;;;;;;;;;;9.67;89.65;101955.91;4992908;28;20084;-65
2022/09/19 07:10:39;;;;;;;;;;;;;;;9.70;89.85;101957.75;4995758;28;19917;-65
2022/09/19 07:13:05;;;;;;;;;;;;;;;9.74;89.91;101964.91;4984915;28;19973;-65
2022/09/19 07:15:31;;;;;;;;;;;;;;;9.77;90.21;101967.63;5001833;28;19945;-65
2022/09/19 07:17:57;;;;;;;;;;;;;;;9.83;90.22;101967.00;4992852;28;19917;-65
2022/09/19 07:20:22;;;;;;;;;;;;;;;9.87;90.10;101972.41;4995883;28;19910;-65
2022/09/19 07:22:58;;;;;;;;;;;;;;;9.92;91.36;101983.94;4994232;28;20041;-65
2022/09/19 07:25:24;;;;;;;;;;;;;;;9.99;90.79;101989.41;5003606;28;20141;-65
2022/09/19 07:27:53;;;;;;;;;;;;;;;10.02;90.62;101992.16;4995462;28;20022;-65
2022/09/19 07:30:18;;;;;;;;;;;;;;;10.06;91.62;101994.94;4994995;28;19952;-65
2022/09/19 07:32:43;;;;;;;;;;;;;;;10.10;90.93;101985.59;4988556;28;19910;-65
2022/09/19 07:35:08;;;;;;;;;;;;;;;10.13;91.15;101993.53;4997128;28;20145;-65
2022/09/19 07:37:34;;;;;;;;;;;;;;;10.18;91.56;102002.44;4984419;28;19945;-61
2022/09/19 07:39:59;;;;;;;;;;;;;;;10.23;91.25;101994.81;4999052;28;19937;-60
2022/09/19 07:42:24;;;;;;;;;;;;;;;10.26;91.11;102001.03;4985386;28;20212;-60
2022/09/19 07:44:49;;;;;;;;;;;;;;;10.31;91.14;102000.34;4996770;28;20184;-60
2022/09/19 07:47:26;;;;;;;;;;;;;;;10.35;91.08;102004.91;4993731;28;19914;-60
2022/09/19 07:49:54;;;;;;;;;;;;;;;10.40;91.63;102004.28;4987055;28;19910;-60
2022/09/19 07:52:19;;;;;;;;;;;;;;;10.44;91.23;102001.00;5004390;28;19921;-60
2022/09/19 07:54:44;;;;;;;;;;;;;;;10.49;90.59;102002.91;4997060;28;20121;-60
2022/09/19 07:57:10;;;;;;;;;;;;;;;10.53;90.87;102005.72;4990564;28;19917;-60
2022/09/19 07:59:35;;;;;;;;;;;;;;;10.57;90.37;102012.84;4997088;28;19914;-60
2022/09/19 08:02:00;;;;;;;;;;;;;;;10.61;90.61;102014.72;4997782;28;19917;-60
2022/09/19 08:04:27;;;;;;;;;;;;;;;10.66;91.15;102012.34;4984151;28;19992;-60
2022/09/19 08:06:52;;;;;;;;;;;;;;;10.69;90.84;102015.06;4988646;28;19913;-60
2022/09/19 08:09:17;;;;;;;;;;;;;;;10.74;90.91;102015.25;4990451;28;19914;-61
2022/09/19 08:11:43;;;;;;;;;;;;;;;10.78;91.01;102024.97;5001363;28;19995;-60
2022/09/19 08:14:08;;;;;;;;;;;;;;;10.82;91.05;102019.06;4995731;28;20013;-60
2022/09/19 08:16:34;;;;;;;;;;;;;;;10.86;90.90;102031.41;4995809;28;19925;-60
2022/09/19 08:18:59;;;;;;;;;;;;;;;10.89;91.00;102022.81;4983931;28;19921;-60
2022/09/19 08:21:25;;;;;;;;;;;;;;;10.91;90.72;102027.25;4987718;28;20025;-60
2022/09/19 08:23:50;;;;;;;;;;;;;;;10.93;90.44;102032.53;4990445;28;19985;-60
2022/09/19 08:26:16;;;;;;;;;;;;;;;10.99;90.95;102037.13;4983836;28;20060;-61
2022/09/19 08:28:42;;;;;;;;;;;;;;;11.02;90.75;102037.25;5000074;28;19917;-60
2022/09/19 08:31:08;;;;;;;;;;;;;;;11.06;91.68;102042.63;4998894;28;19910;-60
2022/09/19 08:33:34;;;;;;;;;;;;;;;11.13;90.73;102034.25;4996100;28;20103;-60
2022/09/19 08:36:00;;;;;;;;;;;;;;;11.21;91.25;102041.47;4987560;28;20153;-60
2022/09/19 08:38:26;;;;;;;;;;;;;;;11.28;90.87;102039.22;4994018;28;19977;-65
2022/09/19 08:41:00;;;;;;;;;;;;;;;11.35;90.51;102036.84;4997484;28;20138;-65
2022/09/19 08:43:34;;;;;;;;;;;;;;;11.41;90.86;102044.91;4989047;28;19934;-65
2022/09/19 08:46:07;;;;;;;;;;;;;;;11.46;90.26;102045.97;4995651;28;19952;-65
2022/09/19 08:48:45;;;;;;;;;;;;;;;11.53;90.16;102045.38;4996139;28;19920;-65
2022/09/19 08:51:19;;;;;;;;;;;;;;;11.57;90.12;102044.69;4999199;28;19913;-65
2022/09/19 08:53:47;;;;;;;;;;;;;;;11.63;89.87;102042.31;4992929;28;19926;-65
2022/09/19 08:56:14;;;;;;;;;;;;;;;11.68;89.93;102038.97;4987333;28;19916;-65
2022/09/19 08:58:44;;;;;;;;;;;;;;;11.72;89.73;102036.53;4988387;28;20148;-65
2022/09/19 09:01:10;;;;;;;;;;;;;;;11.80;90.47;102039.44;4993619;28;19940;-65
2022/09/19 09:03:41;;;;;;;;;;;;;;;11.90;90.22;102043.28;4994868;28;19909;-65
2022/09/19 09:06:25;;;;;;;;;;;;;;;11.98;90.08;102045.38;4996257;28;19917;-65
2022/09/19 09:08:59;;;;;;;;;;;;;;;12.08;89.74;102037.88;4992314;28;19964;-65
2022/09/19 09:11:30;;;;;;;;;;;;;;;12.22;90.06;102043.63;4994060;28;19909;-65
2022/09/19 09:14:08;;;;;;;;;;;;;;;12.34;90.73;102044.94;4999267;28;19987;-65
2022/09/19 09:16:39;;;;;;;;;;;;;;;12.51;90.81;102044.63;4997739;28;20359;-65
2022/09/19 09:19:12;;;;;;;;;;;;;;;12.62;90.62;102047.66;4994468;28;19910;-65
2022/09/19 09:22:03;;;;;;;;;;;;;;;12.73;90.60;102042.78;4995671;28;19912;-65
2022/09/19 09:24:32;;;;;;;;;;;;;;;12.85;90.74;102043.19;4998855;28;19913;-65
2022/09/19 09:26:59;;;;;;;;;;;;;;;12.96;90.68;102044.44;4995969;28;20200;-63
2022/09/19 09:29:28;;;;;;;;;;;;;;;13.07;90.84;102038.69;4998535;28;19970;-63
2022/09/19 09:31:58;;;;;;;;;;;;;;;13.18;90.51;102035.56;4997095;28;20108;-63
2022/09/19 09:34:28;;;;;;;;;;;;;;;13.32;90.03;102028.13;4998871;28;19910;-63
2022/09/19 09:36:56;;;;;;;;;;;;;;;13.45;89.61;102036.41;4997959;28;19916;-58
2022/09/19 09:39:25;;;;;;;;;;;;;;;13.57;89.25;102034.19;5001058;28;20132;-58
2022/09/19 09:41:55;;;;;;;;;;;;;;;13.69;88.71;102038.91;4986527;28;19910;-58
2022/09/19 09:44:42;;;;;;;;;;;;;;;13.77;88.98;102032.13;4993085;28;19918;-58
2022/09/19 09:47:39;;;;;;;;;;;;;;;13.90;88.69;102034.28;4996023;28;19909;-58
2022/09/19 09:50:16;;;;;;;;;;;;;;;14.00;87.92;102030.19;4985414;28;19925;-58
2022/09/19 09:52:55;;;;;;;;;;;;;;;14.11;88.08;102032.22;5005953;28;19952;-58
2022/09/19 09:58:21;;;;;;;;;;;;;;;14.39;87.42;102034.75;4989889;28;19932;-58
2022/09/19 10:03:48;;;;;;;;;;;;;;;14.60;85.90;102041.44;4986068;28;19917;-59
2022/09/19 10:06:26;;;;;;;;;;;;;;;14.69;86.02;102043.47;4997601;28;19930;-58
2022/09/19 10:09:10;;;;;;;;;;;;;;;14.75;86.15;102036.59;4990914;28;20064;-58
2022/09/19 10:11:56;;;;;;;;;;;;;;;14.83;84.95;102035.91;4993348;28;19977;-59
2022/09/19 10:14:23;;;;;;;;;;;;;;;14.86;83.14;102041.25;5002164;28;20016;-58
2022/09/19 10:16:52;;;;;;;;;;;;;;;14.87;81.68;102037.78;5006176;28;19937;-58
2022/09/19 10:19:26;;;;;;;;;;;;;;;14.88;83.35;102036.94;4999013;28;20198;-59
2022/09/19 10:21:52;;;;;;;;;;;;;;;14.87;81.73;102036.03;5002604;28;19910;-60
2022/09/19 10:24:40;;;;;;;;;;;;;;;14.88;81.27;102047.44;4994605;28;19910;-60
2022/09/19 10:27:13;;;;;;;;;;;;;;;14.91;82.59;102044.88;4985950;28;19910;-60
2022/09/19 10:29:52;;;;;;;;;;;;;;;14.93;80.38;102058.91;4991090;28;19910;-60
2022/09/19 10:32:19;;;;;;;;;;;;;;;14.94;80.92;102051.06;4995482;28;20119;-60
2022/09/19 10:34:44;;;;;;;;;;;;;;;14.97;81.14;102046.78;4997157;28;19906;-61
2022/09/19 10:37:14;;;;;;;;;;;;;;;14.98;80.99;102051.19;4996525;28;19953;-61
2022/09/19 10:39:44;;;;;;;;;;;;;;;14.98;80.80;102040.69;4996123;28;19998;-60
2022/09/19 10:42:19;;;;;;;;;;;;;;;14.99;80.68;102052.94;4997261;28;20038;-61
2022/09/19 10:44:52;;;;;;;;;;;;;;;14.99;81.25;102059.09;4995088;28;19937;-60
2022/09/19 10:47:17;;;;;;;;;;;;;;;14.98;81.00;102048.56;4996886;28;19929;-61
2022/09/19 10:49:46;;;;;;;;;;;;;;;14.97;81.18;102050.28;4993952;28;19914;-60
2022/09/19 10:52:20;;;;;;;;;;;;;;;14.95;81.15;102047.63;4996259;28;19912;-60
2022/09/19 10:54:45;;;;;;;;;;;;;;;14.97;80.53;102049.41;4998483;28;19917;-61
2022/09/19 10:57:32;;;;;;;;;;;;;;;14.98;80.25;102035.44;5005389;28;19983;-60
2022/09/19 11:00:02;;;;;;;;;;;;;;;15.03;79.33;102045.16;4997135;28;19906;-61
2022/09/19 11:02:28;;;;;;;;;;;;;;;15.07;79.38;102038.28;4989173;28;20032;-60
2022/09/19 11:05:00;;;;;;;;;;;;;;;15.12;78.72;102045.41;4984859;28;20144;-60
2022/09/19 11:07:29;;;;;;;;;;;;;;;15.19;79.66;102040.28;4984771;28;19909;-66
2022/09/19 11:09:59;;;;;;;;;;;;;;;15.23;79.50;102050.03;4997220;28;19910;-66
2022/09/19 11:12:25;;;;;;;;;;;;;;;15.24;78.05;102036.94;4984296;28;20073;-66
2022/09/19 11:14:50;;;;;;;;;;;;;;;15.28;79.19;102038.78;4989693;28;20163;-65
2022/09/19 11:17:22;;;;;;;;;;;;;;;15.35;78.47;102036.28;5004824;28;19973;-65
2022/09/19 11:19:49;;;;;;;;;;;;;;;15.40;78.62;102035.53;4984421;28;19925;-65
2022/09/19 11:22:14;;;;;;;;;;;;;;;15.47;79.38;102037.47;4996351;28;19906;-65
2022/09/19 11:24:42;;;;;;;;;;;;;;;15.54;79.25;102029.72;4986851;28;20870;-65
2022/09/19 11:27:19;;;;;;;;;;;;;;;15.62;79.06;102034.28;4985758;28;20384;-65
2022/09/19 11:29:54;;;;;;;;;;;;;;;15.73;79.29;102036.25;4983791;28;19926;-65
2022/09/19 11:32:19;;;;;;;;;;;;;;;15.80;78.79;102041.72;4998051;28;19909;-65
2022/09/19 11:34:51;;;;;;;;;;;;;;;15.85;78.34;102043.56;4982238;28;19933;-65
2022/09/19 11:37:28;;;;;;;;;;;;;;;15.85;78.51;102044.44;4983382;28;19910;-61
2022/09/19 11:40:02;;;;;;;;;;;;;;;15.86;75.49;102045.31;4980896;28;19916;-60
2022/09/19 11:42:43;;;;;;;;;;;;;;;15.87;77.44;102047.09;4982327;28;19917;-60
2022/09/19 11:45:13;;;;;;;;;;;;;;;15.84;75.98;102040.03;4980104;28;20196;-60
2022/09/19 11:47:50;;;;;;;;;;;;;;;15.81;74.38;102038.25;4983416;28;20081;-61
2022/09/19 11:50:39;;;;;;;;;;;;;;;15.82;74.97;102031.25;4984453;28;19978;-60
2022/09/19 11:53:18;;;;;;;;;;;;;;;15.92;76.77;102034.94;4964662;28;19930;-61
2022/09/19 11:55:47;;;;;;;;;;;;;;;16.02;75.78;102041.25;4981089;28;20262;-60
2022/09/19 11:58:32;;;;;;;;;;;;;;;16.07;75.25;102034.38;4985777;28;19937;-60
2022/09/19 12:01:05;;;;;;;;;;;;;;;16.09;76.12;102028.28;4988576;28;19910;-60
2022/09/19 12:03:52;;;;;;;;;;;;;;;16.10;76.44;102037.94;4980638;28;19910;-60
2022/09/19 12:06:24;;;;;;;;;;;;;;;16.11;76.34;102038.84;4982270;28;19933;-65
2022/09/19 12:08:49;;;;;;;;;;;;;;;16.11;77.03;102029.19;4988807;28;19917;-65
2022/09/19 12:11:20;;;;;;;;;;;;;;;16.12;77.12;102030.06;4980778;28;19930;-65
2022/09/19 12:13:48;;;;;;;;;;;;;;;16.12;76.71;102028.34;4986788;28;20182;-65
2022/09/19 12:16:32;;;;;;;;;;;;;;;16.11;75.42;102026.56;4990924;28;20052;-65
2022/09/19 12:19:00;;;;;;;;;;;;;;;16.10;74.34;102019.53;4972787;28;20106;-65
2022/09/19 12:21:49;;;;;;;;;;;;;;;16.13;75.16;102022.25;4976712;28;19946;-65
2022/09/19 12:27:11;;;;;;;;;;;;;;;16.31;74.96;102033.97;4988354;28;19964;-66
2022/09/19 12:29:42;;;;;;;;;;;;;;;16.39;75.07;102024.47;4980105;28;19917;-66
2022/09/19 12:32:15;;;;;;;;;;;;;;;16.49;75.00;102026.41;4989898;28;19937;-65
2022/09/19 12:34:50;;;;;;;;;;;;;;;16.57;73.33;102025.66;4987860;28;20105;-66
2022/09/19 12:37:18;;;;;;;;;;;;;;;16.65;74.13;102026.69;4987525;28;19910;-65
2022/09/19 12:39:49;;;;;;;;;;;;;;;16.72;74.27;102031.19;4965096;28;19914;-66
2022/09/19 12:42:19;;;;;;;;;;;;;;;16.81;72.82;102020.81;4962704;28;19960;-66
2022/09/19 12:45:13;;;;;;;;;;;;;;;16.89;73.22;102027.97;4981503;28;20204;-65
2022/09/19 12:47:49;;;;;;;;;;;;;;;16.95;70.96;102012.31;4970959;28;19949;-65
2022/09/19 12:50:22;;;;;;;;;;;;;;;17.01;68.96;102013.25;4981436;28;20168;-66
2022/09/19 12:53:05;;;;;;;;;;;;;;;17.08;70.55;102027.44;4976176;28;20132;-66
2022/09/19 12:55:38;;;;;;;;;;;;;;;17.13;68.83;102017.88;4981439;28;19916;-66
2022/09/19 12:58:16;;;;;;;;;;;;;;;17.19;69.41;102025.84;4984986;28;19949;-66
2022/09/19 13:00:45;;;;;;;;;;;;;;;17.20;68.50;102029.34;4983040;28;20192;-65
2022/09/19 13:03:16;;;;;;;;;;;;;;;17.18;69.26;102024.06;4982075;28;19918;-65
2022/09/19 13:05:41;;;;;;;;;;;;;;;17.20;68.90;102027.59;4977742;28;19910;-66
2022/09/19 13:08:12;;;;;;;;;;;;;;;17.23;70.74;102039.06;4986636;28;19959;-61
2022/09/19 13:10:38;;;;;;;;;;;;;;;17.24;70.38;102039.09;4981421;28;20156;-61
2022/09/19 13:13:04;;;;;;;;;;;;;;;17.23;70.65;102032.03;4987900;28;20144;-60